Time;durP1;ratioP1;P1;durP2;ratioP2;P2;SDS_P1;SDS_P2;PMS_P1;PMS_P2;Temp;Humidity;BMP_temperature;BMP_pressure;BME280_temperature;BME280_humidity;BME280_pressure;Samples;Min_cycle;Max_cycle;Signal;HPM_P1;HPM_P2
2023/06/08 00:01:40;;;;;;;23.43;13.80;;;11.50;99.90;;;;;;5021349;28;20045;-79
2023/06/08 00:04:07;;;;;;;22.20;12.73;;;11.50;99.90;;;;;;5022985;28;20751;-80
2023/06/08 00:06:33;;;;;;;20.50;13.57;;;11.50;99.90;;;;;;5011506;28;20371;-80
2023/06/08 00:09:04;;;;;;;22.47;13.23;;;11.50;99.90;;;;;;5003423;28;20178;-79
2023/06/08 00:11:31;;;;;;;26.83;13.63;;;11.50;99.90;;;;;;5023763;28;20120;-80
2023/06/08 00:13:57;;;;;;;22.10;12.63;;;11.50;99.90;;;;;;5019998;28;20041;-80
2023/06/08 00:16:24;;;;;;;23.83;12.43;;;11.50;99.90;;;;;;5024729;28;20045;-79
2023/06/08 00:18:54;;;;;;;21.63;13.40;;;11.50;99.90;;;;;;5018267;28;20111;-80
2023/06/08 00:21:22;;;;;;;24.37;13.03;;;11.50;99.90;;;;;;5033179;28;20083;-80
2023/06/08 00:23:48;;;;;;;24.47;12.53;;;11.40;99.90;;;;;;5019730;28;20056;-80
2023/06/08 00:26:14;;;;;;;25.03;14.17;;;11.50;99.90;;;;;;5004115;28;20069;-80
2023/06/08 00:28:40;;;;;;;27.87;15.57;;;11.40;99.90;;;;;;5022850;28;20049;-79
2023/06/08 00:31:06;;;;;;;26.80;14.93;;;11.50;99.90;;;;;;5021925;28;20120;-79
2023/06/08 00:33:33;;;;;;;33.23;15.90;;;11.40;99.90;;;;;;5008051;28;20041;-80
2023/06/08 00:35:58;;;;;;;32.80;16.73;;;11.40;99.90;;;;;;5006827;28;20072;-79
2023/06/08 00:38:24;;;;;;;32.80;16.80;;;11.40;99.90;;;;;;5025473;28;20041;-79
2023/06/08 00:40:50;;;;;;;33.73;19.40;;;11.40;99.90;;;;;;5009957;28;20485;-80
2023/06/08 00:43:16;;;;;;;32.77;17.70;;;11.40;99.90;;;;;;5006162;28;20620;-80
2023/06/08 00:45:41;;;;;;;30.20;18.03;;;11.40;99.90;;;;;;5006688;28;20041;-80
2023/06/08 00:48:07;;;;;;;32.13;17.77;;;11.30;99.90;;;;;;5010429;28;20037;-80
2023/06/08 00:50:33;;;;;;;29.87;15.93;;;11.30;99.90;;;;;;5001197;28;20041;-81
2023/06/08 00:52:59;;;;;;;31.27;17.17;;;11.30;99.90;;;;;;5019267;28;20075;-79
2023/06/08 00:55:27;;;;;;;31.97;16.87;;;11.30;99.90;;;;;;4998336;28;20033;-81
2023/06/08 00:57:53;;;;;;;30.23;17.40;;;11.30;99.90;;;;;;5018735;28;20082;-80
2023/06/08 01:00:20;;;;;;;30.93;16.43;;;11.30;99.90;;;;;;5013692;28;20044;-79
2023/06/08 01:02:47;;;;;;;28.60;17.10;;;11.30;99.90;;;;;;4999126;28;20119;-81
2023/06/08 01:05:16;;;;;;;32.07;17.43;;;11.30;99.90;;;;;;5002750;28;20045;-80
2023/06/08 01:07:55;;;;;;;32.07;18.20;;;11.30;99.90;;;;;;4998622;28;20038;-80
2023/06/08 01:10:28;;;;;;;34.93;18.63;;;11.30;99.90;;;;;;5015710;28;20496;-79
2023/06/08 01:13:29;;;;;;;36.93;19.37;;;11.40;99.90;;;;;;5040662;28;20052;-80
2023/06/08 01:16:03;;;;;;;35.87;19.50;;;11.40;99.90;;;;;;4993099;28;20083;-80
2023/06/08 01:18:39;;;;;;;31.50;17.53;;;11.30;99.90;;;;;;5011526;28;20068;-80
2023/06/08 01:21:33;;;;;;;30.47;17.20;;;11.40;99.90;;;;;;5019021;28;20056;-80
2023/06/08 01:24:12;;;;;;;25.30;15.67;;;11.40;99.90;;;;;;5003400;28;20199;-79
2023/06/08 01:26:49;;;;;;;28.93;14.17;;;11.30;99.90;;;;;;5017286;28;20061;-79
2023/06/08 01:29:15;;;;;;;24.90;13.90;;;11.30;99.90;;;;;;5015966;28;20045;-79
2023/06/08 01:31:42;;;;;;;24.50;12.30;;;11.30;99.90;;;;;;5020550;28;20049;-80
2023/06/08 01:34:10;;;;;;;28.23;12.80;;;11.30;99.90;;;;;;5017112;28;20044;-79
2023/06/08 01:36:54;;;;;;;21.43;12.93;;;11.30;99.90;;;;;;5018402;28;20096;-80
2023/06/08 01:39:48;;;;;;;21.60;11.33;;;11.30;99.90;;;;;;5021451;28;20041;-79
2023/06/08 01:42:19;;;;;;;21.37;12.37;;;11.30;99.90;;;;;;5023558;28;20052;-79
2023/06/08 01:45:00;;;;;;;22.13;11.73;;;11.30;99.90;;;;;;5026015;28;20048;-80
2023/06/08 01:47:34;;;;;;;22.67;11.87;;;11.30;99.90;;;;;;5023721;28;20311;-80
2023/06/08 01:50:01;;;;;;;18.03;11.40;;;11.30;99.90;;;;;;5019930;28;20563;-81
2023/06/08 01:52:27;;;;;;;20.47;11.27;;;11.30;99.90;;;;;;5019769;28;20106;-79
2023/06/08 01:54:53;;;;;;;21.47;12.27;;;11.30;99.90;;;;;;5005897;28;20149;-81
2023/06/08 01:57:19;;;;;;;20.13;12.63;;;11.30;99.90;;;;;;5028714;28;20151;-80
2023/06/08 01:59:44;;;;;;;23.37;12.57;;;11.30;99.90;;;;;;5026328;28;20072;-80
2023/06/08 02:02:10;;;;;;;23.23;12.67;;;11.30;99.90;;;;;;5005351;28;20291;-81
2023/06/08 02:04:36;;;;;;;21.67;13.27;;;11.30;99.90;;;;;;5005196;28;20701;-80
2023/06/08 02:07:02;;;;;;;22.60;13.40;;;11.20;99.90;;;;;;5008411;28;20042;-80
2023/06/08 02:09:27;;;;;;;22.57;12.93;;;11.20;99.90;;;;;;5022639;28;20057;-80
2023/06/08 02:12:04;;;;;;;23.03;13.83;;;11.20;99.90;;;;;;5010235;28;20052;-79
2023/06/08 02:14:30;;;;;;;23.00;14.13;;;11.20;99.90;;;;;;5008683;28;20060;-81
2023/06/08 02:16:55;;;;;;;26.43;14.67;;;11.10;99.90;;;;;;5019569;28;20049;-79
2023/06/08 02:19:22;;;;;;;24.37;13.93;;;11.10;99.90;;;;;;5022326;28;20042;-80
2023/06/08 02:21:49;;;;;;;23.57;13.63;;;11.10;99.90;;;;;;5003328;28;20053;-80
2023/06/08 02:24:17;;;;;;;24.93;13.67;;;11.10;99.90;;;;;;5022702;28;20041;-79
2023/06/08 02:26:43;;;;;;;25.93;13.90;;;11.10;99.90;;;;;;5005278;28;20037;-81
2023/06/08 02:29:09;;;;;;;26.17;13.60;;;11.00;99.90;;;;;;5017216;28;20072;-80
2023/06/08 02:31:35;;;;;;;29.30;15.03;;;11.00;99.90;;;;;;5028439;28;20056;-80
2023/06/08 02:34:01;;;;;;;22.67;14.57;;;11.00;99.90;;;;;;5039744;28;20037;-81
2023/06/08 02:36:31;;;;;;;32.33;15.30;;;11.00;99.90;;;;;;5009514;28;20139;-81
2023/06/08 02:38:57;;;;;;;28.97;15.47;;;11.00;99.90;;;;;;5011981;28;20053;-80
2023/06/08 02:41:23;;;;;;;30.00;15.93;;;11.00;99.90;;;;;;5004373;28;20127;-80
2023/06/08 02:43:49;;;;;;;28.07;15.43;;;11.00;99.90;;;;;;5024761;28;20052;-80
2023/06/08 02:46:15;;;;;;;24.73;16.20;;;11.00;99.90;;;;;;5005443;28;20047;-80
2023/06/08 02:48:40;;;;;;;27.47;15.43;;;11.00;99.90;;;;;;5008574;28;20051;-81
2023/06/08 02:51:06;;;;;;;24.50;16.03;;;11.10;99.90;;;;;;5015935;28;20454;-80
2023/06/08 02:53:32;;;;;;;27.17;15.63;;;11.10;99.90;;;;;;5034622;28;20044;-80
2023/06/08 02:55:58;;;;;;;28.87;15.90;;;11.10;99.90;;;;;;4985371;28;20048;-80
2023/06/08 02:58:24;;;;;;;24.13;14.43;;;11.10;99.90;;;;;;5026891;28;20064;-80
2023/06/08 03:00:53;;;;;;;25.27;15.07;;;11.00;99.90;;;;;;5023165;28;20051;-80
2023/06/08 03:03:23;;;;;;;27.73;15.17;;;11.00;99.90;;;;;;5018478;28;20065;-80
2023/06/08 03:05:58;;;;;;;26.43;15.27;;;11.10;99.90;;;;;;5022769;28;20372;-80
2023/06/08 03:08:25;;;;;;;23.67;15.13;;;11.10;99.90;;;;;;5001571;28;20138;-80
2023/06/08 03:10:51;;;;;;;32.00;15.67;;;11.10;99.90;;;;;;5002216;28;20076;-81
2023/06/08 03:13:17;;;;;;;29.27;15.90;;;11.10;99.90;;;;;;5018808;28;20038;-80
2023/06/08 03:15:44;;;;;;;26.70;16.00;;;11.10;99.90;;;;;;5017341;28;20053;-80
2023/06/08 03:18:10;;;;;;;27.47;15.50;;;11.10;99.90;;;;;;5022748;28;20075;-81
2023/06/08 03:20:37;;;;;;;28.77;15.90;;;11.10;99.90;;;;;;5007150;28;20053;-81
2023/06/08 03:23:04;;;;;;;32.50;15.23;;;11.10;99.90;;;;;;5002532;28;20047;-81
2023/06/08 03:25:30;;;;;;;26.10;14.97;;;11.10;99.90;;;;;;5019461;28;20041;-80
2023/06/08 03:27:56;;;;;;;24.27;15.53;;;11.20;99.90;;;;;;5027067;28;20041;-81
2023/06/08 03:30:22;;;;;;;27.73;14.73;;;11.10;99.90;;;;;;4991514;28;20099;-81
2023/06/08 03:32:51;;;;;;;28.60;15.60;;;11.10;99.90;;;;;;5017259;28;20128;-81
2023/06/08 03:35:18;;;;;;;31.23;15.33;;;11.10;99.90;;;;;;5004094;28;20048;-81
2023/06/08 03:37:44;;;;;;;27.50;15.57;;;11.20;99.90;;;;;;5010991;28;20505;-81
2023/06/08 03:40:10;;;;;;;28.73;15.50;;;11.20;99.90;;;;;;5015138;28;20072;-81
2023/06/08 03:42:35;;;;;;;28.50;15.80;;;11.20;99.90;;;;;;5002788;28;20049;-81
2023/06/08 03:45:01;;;;;;;30.40;15.33;;;11.20;99.90;;;;;;5005701;28;20173;-81
2023/06/08 03:47:27;;;;;;;23.50;15.07;;;11.20;99.90;;;;;;5007897;28;20037;-81
2023/06/08 03:49:53;;;;;;;27.40;14.50;;;11.20;99.90;;;;;;4986754;28;20052;-80
2023/06/08 03:52:18;;;;;;;32.20;14.57;;;11.20;99.90;;;;;;5019326;28;20741;-81
2023/06/08 03:54:45;;;;;;;28.23;14.20;;;11.30;99.90;;;;;;5019313;28;20103;-82
2023/06/08 03:57:11;;;;;;;25.30;14.10;;;11.30;99.90;;;;;;5005082;28;20564;-82
2023/06/08 03:59:38;;;;;;;28.80;15.10;;;11.30;99.90;;;;;;5003308;28;20052;-82
2023/06/08 04:02:03;;;;;;;22.80;14.03;;;11.30;99.90;;;;;;5020985;28;20045;-81
2023/06/08 04:04:29;;;;;;;27.47;14.53;;;11.30;99.90;;;;;;5028717;28;20044;-83
2023/06/08 04:07:00;;;;;;;24.90;13.97;;;11.40;99.90;;;;;;5003659;28;20065;-84
2023/06/08 04:09:26;;;;;;;25.70;13.47;;;11.30;99.90;;;;;;5022592;28;20044;-79
2023/06/08 04:11:52;;;;;;;25.13;13.03;;;11.30;99.90;;;;;;5021200;28;20068;-79
2023/06/08 04:14:18;;;;;;;21.87;12.63;;;11.40;99.90;;;;;;5008738;28;20064;-79
2023/06/08 04:16:43;;;;;;;23.63;11.97;;;11.40;99.90;;;;;;5019314;28;20498;-79
2023/06/08 04:19:09;;;;;;;19.23;12.03;;;11.30;99.90;;;;;;5003316;28;20076;-79
2023/06/08 04:21:36;;;;;;;23.67;12.20;;;11.30;99.90;;;;;;5020889;28;20432;-79
2023/06/08 04:24:02;;;;;;;22.40;12.17;;;11.30;99.90;;;;;;5028025;28;20065;-78
2023/06/08 04:26:28;;;;;;;24.70;12.47;;;11.30;99.90;;;;;;5017022;28;20049;-78
2023/06/08 04:28:54;;;;;;;19.10;11.57;;;11.30;99.90;;;;;;5004109;28;20514;-77
2023/06/08 04:31:20;;;;;;;23.43;11.87;;;11.30;99.90;;;;;;5016891;28;20491;-81
2023/06/08 04:33:46;;;;;;;19.97;11.67;;;11.30;99.90;;;;;;5003983;28;20037;-81
2023/06/08 04:36:12;;;;;;;22.37;12.17;;;11.40;99.90;;;;;;5006773;28;20064;-78
2023/06/08 04:38:39;;;;;;;21.83;11.60;;;11.40;99.90;;;;;;5006277;28;20045;-77
2023/06/08 04:41:07;;;;;;;21.53;11.17;;;11.30;99.90;;;;;;5006929;28;20056;-77
2023/06/08 04:43:34;;;;;;;21.90;11.07;;;11.40;99.90;;;;;;5028520;28;20056;-78
2023/06/08 04:46:04;;;;;;;22.40;11.43;;;11.40;99.90;;;;;;5004740;28;20045;-79
2023/06/08 04:48:33;;;;;;;18.53;10.97;;;11.40;99.90;;;;;;5004728;28;21464;-78
2023/06/08 04:51:02;;;;;;;20.03;12.13;;;11.40;99.90;;;;;;5001627;28;20582;-80
2023/06/08 04:53:30;;;;;;;21.67;11.37;;;11.40;99.90;;;;;;5007906;28;20100;-79
2023/06/08 04:55:58;;;;;;;17.63;11.37;;;11.40;99.90;;;;;;5004089;28;20061;-78
2023/06/08 04:58:25;;;;;;;25.47;12.13;;;11.40;99.90;;;;;;5021180;28;20602;-77
2023/06/08 05:00:52;;;;;;;20.77;11.67;;;11.50;99.90;;;;;;5008056;28;20128;-79
2023/06/08 05:03:19;;;;;;;25.07;12.03;;;11.50;99.90;;;;;;5003883;28;20108;-78
2023/06/08 05:05:44;;;;;;;23.43;11.13;;;11.50;99.90;;;;;;5008428;28;20045;-78
2023/06/08 05:08:10;;;;;;;20.30;12.40;;;11.50;99.90;;;;;;5003096;28;20042;-79
2023/06/08 05:10:36;;;;;;;18.63;10.83;;;11.50;99.90;;;;;;5006982;28;20049;-79
2023/06/08 05:13:01;;;;;;;23.03;12.23;;;11.50;99.90;;;;;;5005527;28;20617;-79
2023/06/08 05:15:28;;;;;;;20.13;11.33;;;11.60;99.90;;;;;;4991031;28;20047;-79
2023/06/08 05:17:55;;;;;;;25.17;12.67;;;11.60;99.90;;;;;;5007446;28;20599;-79
2023/06/08 05:20:23;;;;;;;22.40;12.17;;;11.60;99.90;;;;;;4989625;28;20069;-79
2023/06/08 05:22:49;;;;;;;22.70;12.03;;;11.60;99.90;;;;;;5008054;28;20481;-79
2023/06/08 05:25:15;;;;;;;21.47;11.93;;;11.70;99.90;;;;;;5006666;28;20126;-79
2023/06/08 05:27:40;;;;;;;20.33;11.83;;;11.70;99.90;;;;;;4994156;28;20049;-80
2023/06/08 05:30:07;;;;;;;20.43;12.27;;;11.70;99.90;;;;;;5007798;28;20152;-78
2023/06/08 05:32:33;;;;;;;22.57;11.77;;;11.80;99.90;;;;;;5006650;28;20045;-78
2023/06/08 05:35:00;;;;;;;24.50;11.77;;;11.90;99.90;;;;;;4992825;28;20060;-78
2023/06/08 05:37:26;;;;;;;25.27;11.60;;;11.90;99.90;;;;;;5003863;28;20144;-79
2023/06/08 05:39:52;;;;;;;22.37;11.60;;;12.10;99.90;;;;;;5009959;28;20073;-78
2023/06/08 05:42:18;;;;;;;25.93;12.73;;;12.10;99.90;;;;;;5006607;28;20072;-79
2023/06/08 05:44:44;;;;;;;25.40;12.00;;;12.30;99.90;;;;;;5011207;28;20069;-78
2023/06/08 05:47:10;;;;;;;22.60;11.80;;;12.30;99.90;;;;;;5011199;28;20057;-78
2023/06/08 05:49:35;;;;;;;22.13;11.77;;;12.50;99.90;;;;;;4977645;28;20044;-79
2023/06/08 05:52:01;;;;;;;18.45;11.95;;;12.50;99.90;;;;;;4995495;28;20041;-78
2023/06/08 05:54:27;;;;;;;18.13;11.73;;;12.50;99.90;;;;;;5008958;28;20138;-79
2023/06/08 05:56:52;;;;;;;18.15;11.52;;;12.50;99.90;;;;;;4996097;28;20053;-78
2023/06/08 05:59:18;;;;;;;23.52;12.32;;;12.50;99.90;;;;;;5027781;28;20128;-78
2023/06/08 06:01:45;;;;;;;22.40;12.38;;;12.50;99.90;;;;;;5028628;28;20059;-78
2023/06/08 06:04:11;;;;;;;21.10;11.60;;;12.60;99.90;;;;;;5025657;28;20056;-78
2023/06/08 06:06:37;;;;;;;24.73;12.63;;;12.70;99.90;;;;;;5024078;28;20104;-78
2023/06/08 06:09:03;;;;;;;17.92;11.27;;;12.80;99.90;;;;;;5010120;28;20066;-77
2023/06/08 06:11:30;;;;;;;22.55;12.20;;;12.80;99.90;;;;;;4990534;28;20060;-78
2023/06/08 06:13:57;;;;;;;21.73;12.40;;;12.90;99.90;;;;;;5010513;28;20049;-79
2023/06/08 06:16:23;;;;;;;23.42;12.50;;;12.90;99.90;;;;;;5023377;28;20372;-78
2023/06/08 06:18:50;;;;;;;24.42;12.85;;;12.90;99.90;;;;;;4993867;28;20060;-78
2023/06/08 06:21:16;;;;;;;25.23;12.65;;;13.00;99.90;;;;;;5007818;28;20504;-80
2023/06/08 06:23:44;;;;;;;20.25;11.68;;;13.10;99.90;;;;;;4995535;28;20048;-78
2023/06/08 06:26:11;;;;;;;23.10;12.00;;;13.30;99.90;;;;;;5010661;28;20053;-78
2023/06/08 06:28:40;;;;;;;18.17;11.45;;;13.40;99.90;;;;;;5027117;28;20072;-78
2023/06/08 06:31:06;;;;;;;20.63;10.48;;;13.60;99.90;;;;;;4994933;28;20052;-79
2023/06/08 06:33:32;;;;;;;21.33;11.30;;;13.70;99.90;;;;;;5007817;28;20535;-79
2023/06/08 06:35:58;;;;;;;17.27;10.35;;;13.80;99.90;;;;;;5009974;28;20033;-78
2023/06/08 06:38:24;;;;;;;17.30;10.13;;;13.90;99.90;;;;;;5010677;28;20148;-78
2023/06/08 06:40:52;;;;;;;18.45;9.82;;;14.00;99.90;;;;;;5008982;28;20044;-78
2023/06/08 06:43:23;;;;;;;17.92;9.43;;;14.00;99.90;;;;;;4994610;28;20053;-78
2023/06/08 06:45:50;;;;;;;16.23;8.82;;;13.90;99.90;;;;;;5008393;28;20045;-79
2023/06/08 06:48:22;;;;;;;15.02;8.30;;;13.90;99.90;;;;;;5013161;28;20057;-80
2023/06/08 06:50:49;;;;;;;15.23;8.15;;;14.00;99.90;;;;;;5010393;28;20049;-78
2023/06/08 06:53:15;;;;;;;15.73;7.70;;;14.10;99.90;;;;;;5010946;28;20057;-78
2023/06/08 06:55:41;;;;;;;16.02;7.82;;;14.30;99.90;;;;;;5009112;28;20043;-77
2023/06/08 06:58:07;;;;;;;16.35;8.50;;;14.30;99.90;;;;;;4993047;28;20048;-77
2023/06/08 07:00:37;;;;;;;15.23;8.38;;;14.40;99.90;;;;;;5010565;28;20046;-77
2023/06/08 07:03:07;;;;;;;16.63;8.13;;;14.50;99.90;;;;;;5001892;28;20123;-77
2023/06/08 07:05:33;;;;;;;17.40;8.50;;;14.50;99.90;;;;;;5008624;28;20084;-77
2023/06/08 07:07:59;;;;;;;23.33;8.50;;;14.70;99.90;;;;;;5007965;28;20105;-77
2023/06/08 07:10:25;;;;;;;13.73;8.55;;;14.90;99.90;;;;;;5027336;28;20069;-77
2023/06/08 07:12:51;;;;;;;18.48;8.70;;;14.90;99.90;;;;;;4992859;28;20645;-78
2023/06/08 07:15:18;;;;;;;16.48;8.85;;;15.00;99.90;;;;;;5025497;28;20045;-77
2023/06/08 07:17:45;;;;;;;15.82;8.52;;;15.00;99.90;;;;;;5009367;28;20052;-77
2023/06/08 07:20:12;;;;;;;22.30;9.50;;;15.00;99.90;;;;;;5023340;28;20061;-79
2023/06/08 07:22:38;;;;;;;17.95;8.10;;;15.10;99.90;;;;;;4994773;28;20041;-77
2023/06/08 07:25:05;;;;;;;16.38;7.85;;;15.10;99.90;;;;;;5007202;28;20142;-76
2023/06/08 07:27:31;;;;;;;13.15;8.38;;;15.10;99.90;;;;;;4993634;28;20491;-78
2023/06/08 07:29:57;;;;;;;16.63;8.38;;;15.10;99.90;;;;;;5024318;28;20129;-76
2023/06/08 07:32:22;;;;;;;14.02;8.43;;;15.20;99.90;;;;;;4991780;28;20420;-77
2023/06/08 07:34:48;;;;;;;16.70;8.05;;;15.30;99.90;;;;;;5010020;28;20049;-76
2023/06/08 07:37:14;;;;;;;14.82;7.68;;;15.40;99.90;;;;;;4989697;28;20419;-77
2023/06/08 07:39:40;;;;;;;12.73;8.70;;;15.50;99.90;;;;;;5023060;28;20827;-77
2023/06/08 07:42:06;;;;;;;15.43;7.40;;;15.60;99.90;;;;;;4992075;28;20045;-79
2023/06/08 07:44:32;;;;;;;16.20;7.60;;;15.50;99.90;;;;;;5009708;28;20075;-77
2023/06/08 07:46:58;;;;;;;15.23;7.15;;;15.70;99.90;;;;;;5007712;28;20053;-76
2023/06/08 07:49:23;;;;;;;14.68;7.20;;;15.70;99.90;;;;;;5006469;28;20277;-76
2023/06/08 07:51:50;;;;;;;20.75;7.57;;;15.70;99.90;;;;;;4991699;28;20128;-77
2023/06/08 07:54:19;;;;;;;14.18;7.53;;;15.80;99.90;;;;;;5005403;28;20076;-76
2023/06/08 07:56:48;;;;;;;16.95;7.78;;;15.90;99.90;;;;;;5009014;28;20057;-77
2023/06/08 07:59:14;;;;;;;12.75;7.50;;;16.00;99.90;;;;;;5006098;28;20591;-77
2023/06/08 08:01:42;;;;;;;17.05;7.60;;;16.10;99.90;;;;;;5008259;28;20113;-78
2023/06/08 08:04:08;;;;;;;14.82;7.93;;;16.00;99.90;;;;;;4991344;28;20038;-79
2023/06/08 08:06:34;;;;;;;15.15;7.30;;;16.10;99.90;;;;;;5023139;28;20112;-78
2023/06/08 08:09:00;;;;;;;13.77;7.70;;;16.10;99.90;;;;;;4992856;28;20097;-78
2023/06/08 08:11:27;;;;;;;17.40;8.43;;;16.20;99.90;;;;;;5005592;28;20037;-78
2023/06/08 08:13:52;;;;;;;14.95;7.78;;;16.30;99.90;;;;;;5025475;28;20267;-77
2023/06/08 08:16:18;;;;;;;13.63;7.60;;;16.60;99.90;;;;;;5004843;28;20045;-77
2023/06/08 08:18:44;;;;;;;14.35;7.40;;;16.50;99.90;;;;;;5008202;28;20049;-77
2023/06/08 08:21:10;;;;;;;14.82;7.70;;;16.50;99.90;;;;;;5005324;28;20350;-77
2023/06/08 08:23:38;;;;;;;14.68;8.20;;;16.50;99.90;;;;;;5009408;28;20084;-78
2023/06/08 08:26:03;;;;;;;16.52;7.78;;;16.40;99.90;;;;;;5026009;28;20085;-76
2023/06/08 08:28:30;;;;;;;15.50;8.75;;;16.40;99.90;;;;;;5005426;28;20041;-77
2023/06/08 08:30:56;;;;;;;15.73;8.98;;;16.40;99.90;;;;;;5026738;28;21249;-78
2023/06/08 08:33:22;;;;;;;15.63;8.55;;;16.40;99.90;;;;;;4989999;28;20087;-76
2023/06/08 08:35:47;;;;;;;16.73;7.90;;;16.50;99.90;;;;;;5009100;28;20037;-76
2023/06/08 08:38:13;;;;;;;19.13;7.88;;;16.60;99.90;;;;;;5022120;28;20141;-77
2023/06/08 08:40:41;;;;;;;12.15;7.45;;;16.90;99.90;;;;;;4991636;28;20080;-77
2023/06/08 08:43:19;;;;;;;13.77;7.78;;;17.20;99.90;;;;;;5008802;28;20496;-76
2023/06/08 08:45:45;;;;;;;15.82;7.55;;;17.40;99.90;;;;;;5005771;28;20045;-77
2023/06/08 08:48:15;;;;;;;14.40;6.97;;;17.60;99.90;;;;;;5009106;28;20048;-77
2023/06/08 08:50:42;;;;;;;12.23;7.35;;;17.80;99.90;;;;;;5023946;28;20049;-78
2023/06/08 08:53:09;;;;;;;13.65;6.53;;;18.00;99.90;;;;;;5024925;28;20041;-78
2023/06/08 08:55:36;;;;;;;14.43;6.10;;;18.30;99.90;;;;;;5024699;28;20038;-86
2023/06/08 08:58:03;;;;;;;11.55;6.18;;;18.60;99.90;;;;;;5024560;28;20518;-79
2023/06/08 09:00:31;;;;;;;12.30;6.20;;;18.60;99.90;;;;;;5026725;28;20052;-83
2023/06/08 09:02:56;;;;;;;13.00;6.78;;;18.70;99.90;;;;;;5005754;28;21284;-81
2023/06/08 09:05:22;;;;;;;13.85;6.68;;;18.80;99.90;;;;;;5007716;28;20181;-80
2023/06/08 09:07:48;;;;;;;12.07;7.05;;;18.80;99.90;;;;;;5004664;28;20042;-80
2023/06/08 09:10:22;;;;;;;14.70;6.45;;;18.90;99.90;;;;;;5009448;28;20041;-81
2023/06/08 09:12:49;;;;;;;14.02;6.43;;;19.00;99.90;;;;;;5026086;28;20415;-78
2023/06/08 09:15:34;;;;;;;16.33;6.47;;;19.00;99.90;;;;;;5022512;28;20038;-82
2023/06/08 09:18:17;;;;;;;14.38;6.45;;;19.30;99.90;;;;;;5026835;28;20069;-82
2023/06/08 09:20:44;;;;;;;13.27;6.60;;;19.50;99.90;;;;;;5005127;28;20048;-81
2023/06/08 09:23:21;;;;;;;12.35;6.22;;;19.40;99.90;;;;;;5012026;28;20057;-81
2023/06/08 09:25:47;;;;;;;12.07;6.18;;;19.40;99.90;;;;;;4992508;28;20045;-81
2023/06/08 09:28:24;;;;;;;12.23;7.00;;;19.40;99.90;;;;;;5008108;28;20045;-81
2023/06/08 09:30:51;;;;;;;11.52;6.40;;;19.30;99.90;;;;;;5008254;28;20057;-83
2023/06/08 09:33:21;;;;;;;16.25;6.97;;;19.20;99.90;;;;;;5005771;28;20052;-78
2023/06/08 09:36:08;;;;;;;13.40;6.60;;;19.20;99.90;;;;;;5021620;28;20037;-80
2023/06/08 09:38:35;;;;;;;15.10;6.80;;;19.30;99.90;;;;;;5001573;28;20054;-78
2023/06/08 09:41:21;;;;;;;12.68;7.28;;;19.30;99.90;;;;;;5019179;28;20049;-80
2023/06/08 09:43:51;;;;;;;13.93;6.68;;;19.40;99.90;;;;;;5021897;28;20075;-80
2023/06/08 09:46:32;;;;;;;13.00;6.80;;;19.30;99.90;;;;;;5034886;28;20053;-79
2023/06/08 09:48:58;;;;;;;8.98;6.18;;;19.20;99.90;;;;;;5028130;28;20053;-79
2023/06/08 09:51:25;;;;;;;10.57;6.25;;;19.20;99.90;;;;;;5043530;28;20806;-79
2023/06/08 09:53:57;;;;;;;11.35;6.30;;;19.30;99.90;;;;;;5024964;28;20049;-79
2023/06/08 09:56:26;;;;;;;13.85;6.03;;;19.40;99.90;;;;;;5034963;28;20126;-80
2023/06/08 09:58:57;;;;;;;12.90;6.25;;;19.50;99.90;;;;;;5019408;28;20041;-79
2023/06/08 10:01:41;;;;;;;9.38;5.85;;;19.40;99.90;;;;;;5043232;28;20037;-79
2023/06/08 10:04:28;;;;;;;10.73;6.47;;;19.60;99.90;;;;;;5031297;28;20044;-79
2023/06/08 10:07:01;;;;;;;14.07;6.35;;;19.70;99.90;;;;;;5023545;28;20052;-80
2023/06/08 10:09:28;;;;;;;9.75;5.63;;;19.80;99.90;;;;;;5047673;28;20439;-79
2023/06/08 10:11:57;;;;;;;14.70;6.78;;;19.90;99.90;;;;;;5017688;28;20057;-79
2023/06/08 10:14:25;;;;;;;12.73;6.43;;;20.00;99.90;;;;;;5039384;28;20048;-80
2023/06/08 10:16:56;;;;;;;15.32;6.18;;;20.00;99.90;;;;;;5021864;28;20053;-82
2023/06/08 10:19:22;;;;;;;13.90;6.55;;;20.10;99.90;;;;;;5018493;28;20057;-77
2023/06/08 10:21:50;;;;;;;13.57;6.20;;;20.20;99.90;;;;;;5018871;28;20054;-76
2023/06/08 10:24:19;;;;;;;10.95;6.05;;;20.30;99.90;;;;;;5011750;28;20088;-79
2023/06/08 10:26:46;;;;;;;14.63;6.80;;;20.70;99.90;;;;;;5038244;28;20455;-79
2023/06/08 10:29:12;;;;;;;10.45;5.80;;;20.90;99.90;;;;;;5036263;28;20053;-78
2023/06/08 10:31:42;;;;;;;12.13;7.20;;;20.90;99.90;;;;;;5021166;28;20099;-80
2023/06/08 10:34:13;;;;;;;11.27;7.13;;;20.80;99.90;;;;;;5034199;28;20116;-78
2023/06/08 10:36:40;;;;;;;8.80;5.95;;;20.80;99.90;;;;;;5017014;28;20297;-77
2023/06/08 10:39:12;;;;;;;10.75;6.30;;;20.80;99.90;;;;;;5038670;28;20053;-79
2023/06/08 10:41:57;;;;;;;16.85;6.32;;;20.90;99.90;;;;;;5006746;28;20044;-78
2023/06/08 10:44:29;;;;;;;16.60;6.38;;;21.10;99.90;;;;;;5044776;28;20053;-78
2023/06/08 10:47:02;;;;;;;11.07;5.93;;;21.20;99.90;;;;;;5026399;28;20057;-77
2023/06/08 10:49:30;;;;;;;13.52;6.00;;;21.30;99.90;;;;;;5037455;28;20046;-76
2023/06/08 10:51:57;;;;;;;12.18;6.20;;;21.30;99.90;;;;;;5028766;28;20100;-75
2023/06/08 10:54:23;;;;;;;15.13;6.55;;;21.40;99.90;;;;;;5022155;28;20099;-76
2023/06/08 10:56:52;;;;;;;10.35;5.80;;;21.40;99.90;;;;;;5031556;28;20566;-75
2023/06/08 10:59:37;;;;;;;13.18;5.97;;;21.40;99.90;;;;;;5017468;28;20079;-78
2023/06/08 11:02:05;;;;;;;9.27;5.47;;;21.40;99.90;;;;;;5035015;28;20073;-78
2023/06/08 11:04:32;;;;;;;10.95;6.20;;;21.30;99.90;;;;;;5027714;28;20045;-77
2023/06/08 11:07:03;;;;;;;10.90;5.28;;;21.40;99.90;;;;;;5021906;28;20041;-78
2023/06/08 11:09:33;;;;;;;14.02;5.63;;;21.30;99.90;;;;;;5029215;28;20069;-78
2023/06/08 11:12:03;;;;;;;9.03;5.60;;;21.40;99.90;;;;;;5024820;28;20068;-78
2023/06/08 11:14:29;;;;;;;12.18;6.18;;;21.40;99.90;;;;;;5038217;28;20048;-78
2023/06/08 11:16:56;;;;;;;13.65;5.85;;;21.50;99.90;;;;;;5036522;28;20473;-78
2023/06/08 11:19:24;;;;;;;9.73;5.30;;;21.50;99.90;;;;;;5037048;28;20157;-78
2023/06/08 11:21:53;;;;;;;11.82;5.68;;;21.60;99.90;;;;;;5046696;28;20113;-78
2023/06/08 11:24:25;;;;;;;10.38;5.53;;;21.60;99.90;;;;;;5035920;28;20037;-77
2023/06/08 11:27:01;;;;;;;14.02;5.88;;;21.60;99.90;;;;;;5026730;28;20122;-78
2023/06/08 11:29:27;;;;;;;11.10;5.38;;;21.70;99.90;;;;;;5012919;28;20052;-78
2023/06/08 11:31:54;;;;;;;13.82;5.85;;;21.70;99.90;;;;;;5022576;28;20065;-77
2023/06/08 11:34:22;;;;;;;12.98;6.40;;;21.80;99.90;;;;;;5036693;28;20044;-79
2023/06/08 11:36:49;;;;;;;10.57;5.95;;;21.90;99.90;;;;;;5007093;28;20077;-78
2023/06/08 11:39:15;;;;;;;10.00;5.60;;;21.90;99.90;;;;;;5033602;28;20076;-78
2023/06/08 11:41:46;;;;;;;10.48;5.70;;;22.10;99.90;;;;;;5032468;28;20049;-78
2023/06/08 11:44:15;;;;;;;11.07;5.93;;;22.30;99.90;;;;;;5038391;28;20136;-77
2023/06/08 11:46:41;;;;;;;13.10;6.28;;;22.30;99.90;;;;;;5035209;28;20041;-77
2023/06/08 11:49:10;;;;;;;9.15;4.95;;;22.20;99.90;;;;;;5036257;28;20641;-78
2023/06/08 11:51:48;;;;;;;12.80;5.63;;;22.30;97.10;;;;;;5020673;28;20045;-79
2023/06/08 11:54:15;;;;;;;7.60;5.40;;;22.40;94.70;;;;;;5014177;28;20468;-77
2023/06/08 11:56:45;;;;;;;8.90;5.07;;;22.40;94.90;;;;;;5038429;28;20507;-78
2023/06/08 11:59:14;;;;;;;8.68;5.40;;;22.30;97.60;;;;;;5033998;28;20064;-77
2023/06/08 12:01:59;;;;;;;10.52;5.90;;;22.30;99.90;;;;;;5019039;28;20050;-78
2023/06/08 12:04:33;;;;;;;12.68;5.82;;;22.40;95.90;;;;;;5042016;28;20762;-77
2023/06/08 12:07:07;;;;;;;10.73;5.32;;;22.50;90.30;;;;;;5019868;28;20096;-77
2023/06/08 12:09:33;;;;;;;8.05;4.97;;;22.50;84.00;;;;;;5037091;28;20049;-77
2023/06/08 12:12:08;;;;;;;11.35;6.03;;;22.30;83.50;;;;;;5022007;28;20050;-78
2023/06/08 12:14:45;;;;;;;7.93;5.40;;;22.10;92.90;;;;;;5031601;28;20496;-77
2023/06/08 12:17:15;;;;;;;13.63;5.80;;;22.00;95.70;;;;;;5036928;28;20049;-77
2023/06/08 12:19:47;;;;;;;12.40;5.90;;;22.10;95.60;;;;;;5021730;28;20598;-78
2023/06/08 12:22:16;;;;;;;9.50;5.82;;;22.40;90.90;;;;;;5018130;28;20068;-77
2023/06/08 12:24:41;;;;;;;7.10;5.30;;;22.40;89.30;;;;;;5033173;28;20453;-76
2023/06/08 12:27:07;;;;;;;13.32;5.95;;;22.40;90.00;;;;;;5035723;28;20059;-77
2023/06/08 12:29:37;;;;;;;11.73;5.72;;;22.60;90.90;;;;;;5045045;28;20123;-77
2023/06/08 12:32:06;;;;;;;12.15;6.10;;;22.60;92.40;;;;;;5036959;28;20151;-77
2023/06/08 12:34:32;;;;;;;10.00;5.82;;;22.80;92.40;;;;;;5019378;28;20061;-77
2023/06/08 12:36:59;;;;;;;11.52;6.25;;;23.00;92.10;;;;;;5024049;28;20061;-77
2023/06/08 12:39:25;;;;;;;11.68;5.63;;;22.90;92.20;;;;;;5016098;28;20662;-77